createdAt,value
2018-05-03T00:03:41.221Z,66.38
2018-05-03T00:05:47.689Z,66.47
2018-05-03T00:25:08.234Z,67.97
2018-05-03T00:31:41.841Z,66.28
2018-05-03T00:35:17.094Z,65.14
2018-05-03T00:35:57.737Z,65.07
2018-05-03T00:36:38.110Z,64.78
2018-05-03T00:37:18.502Z,64.5
2018-05-03T00:37:58.871Z,64.22
2018-05-03T00:38:39.290Z,64.22
2018-05-03T00:39:19.692Z,63.83
2018-05-03T00:43:13.247Z,63
2018-05-03T00:43:53.825Z,62.62
2018-05-03T00:44:34.269Z,62.9
2018-05-03T00:45:14.657Z,62.33
2018-05-03T00:45:55.055Z,62.33
2018-05-03T00:46:35.480Z,61.76
2018-05-03T00:47:15.907Z,61.85
2018-05-03T00:47:56.289Z,61.22
2018-05-03T00:48:36.690Z,61.19
2018-05-03T00:49:17.117Z,61.51
2018-05-03T00:49:57.515Z,61.51
2018-05-03T00:50:37.918Z,60.83
2018-05-03T00:51:18.336Z,61.12
2018-05-03T00:51:58.773Z,60.74
2018-05-03T00:52:39.169Z,60.45
2018-05-03T00:53:19.537Z,60.93
2018-05-03T00:53:59.929Z,60.83
2018-05-03T00:55:47.717Z,60.35
2018-05-03T00:56:27.864Z,60.55
2018-05-03T00:57:08.315Z,60.55
2018-05-03T00:57:48.663Z,60.64
2018-05-03T00:58:29.103Z,60.93
2018-05-03T00:59:09.503Z,60.83
2018-05-03T00:59:49.945Z,60.45
2018-05-03T01:00:30.350Z,60.45
2018-05-03T01:01:10.775Z,60.64
2018-05-03T01:01:51.147Z,60.55
2018-05-03T01:02:31.580Z,60.16
2018-05-03T01:03:12.082Z,60.64
2018-05-03T01:03:52.564Z,60.35
2018-05-03T01:04:32.869Z,60.64
2018-05-03T01:05:13.287Z,60.64
2018-05-03T01:05:53.693Z,60.74
2018-05-03T01:06:34.115Z,61.51
2018-05-03T01:07:14.484Z,61.22
2018-05-03T01:07:54.891Z,61.31
2018-05-03T01:10:51.846Z,62.27
2018-05-03T01:11:32.028Z,62.46
2018-05-03T01:15:27.561Z,63.32
2018-05-03T01:16:07.927Z,63.7
2018-05-03T01:16:48.326Z,63.7
2018-05-03T01:17:28.737Z,63.8
2018-05-03T01:18:09.197Z,63.99
2018-05-03T01:18:49.591Z,64.18
2018-05-03T01:19:30.027Z,64.37
2018-05-03T01:20:10.388Z,63.89
2018-05-03T01:20:50.766Z,63.89
2018-05-03T01:21:31.180Z,63.99
2018-05-03T01:22:14.355Z,64.09
2018-05-03T01:22:54.793Z,63.99
2018-05-03T01:23:35.139Z,64.37
2018-05-03T01:24:15.550Z,63.8
2018-05-03T01:24:55.922Z,64.18
2018-05-03T01:25:36.341Z,63.99
2018-05-03T01:26:16.726Z,63.89
2018-05-03T01:26:57.117Z,63.8
2018-05-03T01:27:37.537Z,64.09
2018-05-03T01:28:17.946Z,63.42
2018-05-03T01:28:58.362Z,62.94
2018-05-03T01:29:38.789Z,63.42
2018-05-03T01:30:19.200Z,63.42
2018-05-03T01:30:59.686Z,63.99
2018-05-03T01:31:40.093Z,63.7
2018-05-03T01:32:20.437Z,63.8
2018-05-03T01:33:00.900Z,64.18
2018-05-03T01:33:41.250Z,63.89
2018-05-03T01:34:21.657Z,65.04
2018-05-03T01:35:02.094Z,64.95
2018-05-03T01:41:15.513Z,65.9
2018-05-03T01:41:55.748Z,66.38
2018-05-03T01:42:36.133Z,67.14
2018-05-03T01:43:16.480Z,67.34
2018-05-03T01:43:56.941Z,67.72
2018-05-03T01:44:37.300Z,68.39
2018-05-03T01:45:17.749Z,69.06
2018-05-03T01:45:58.139Z,68.87
2018-05-03T01:46:38.539Z,68.29
2018-05-03T01:47:18.915Z,68.29
2018-05-03T01:47:59.338Z,68.1
2018-05-03T01:48:39.784Z,68.29
2018-05-03T01:49:20.168Z,68.29
2018-05-03T01:50:00.617Z,68.1
2018-05-03T01:50:41.004Z,67.91
2018-05-03T01:51:21.416Z,68.2
2018-05-03T01:53:22.687Z,68.29
2018-05-03T01:53:59.912Z,68.39
2018-05-03T01:54:40.682Z,68.68
2018-05-03T01:55:20.883Z,68.77
2018-05-03T01:56:01.246Z,68.87
2018-05-03T01:56:41.741Z,69.73
2018-05-03T01:57:22.169Z,69.25
2018-05-03T01:58:03.046Z,69.44
2018-05-03T01:58:43.528Z,69.73
2018-05-03T01:59:24.102Z,68.68
2018-05-03T02:00:04.541Z,69.64
2018-05-03T02:00:44.807Z,69.64
2018-05-03T02:01:25.388Z,69.35
2018-05-03T02:02:05.703Z,69.64
2018-05-03T02:02:46.409Z,69.64
2018-05-03T02:03:29.170Z,69.06
2018-05-03T02:04:10.519Z,69.64
2018-05-03T02:04:50.180Z,69.92
2018-05-03T02:05:30.890Z,69.82
2018-05-03T02:06:11.400Z,69.06
2018-05-03T02:06:52.022Z,68.87
2018-05-03T02:07:32.816Z,69.06
2018-05-03T02:08:13.785Z,69.15
2018-05-03T02:08:53.860Z,69.54
2018-05-03T02:09:34.681Z,69.44
2018-05-03T02:10:15.476Z,69.44
2018-05-03T02:10:55.770Z,69.92
2018-05-03T02:11:36.270Z,69.15
2018-05-03T02:12:16.678Z,68.96
2018-05-03T02:12:57.729Z,69.35
2018-05-03T02:13:38.999Z,70.01
2018-05-03T02:14:19.624Z,69.44
2018-05-03T02:15:01.380Z,69.15
2018-05-03T02:15:43.517Z,69.54
2018-05-03T02:16:24.871Z,69.82
2018-05-03T02:17:05.786Z,69.82
2018-05-03T02:17:45.596Z,69.64
2018-05-03T02:18:29.965Z,69.64
2018-05-03T02:19:10.549Z,69.64
2018-05-03T02:19:50.962Z,69.92
2018-05-03T02:20:31.732Z,69.57
2018-05-03T02:21:12.590Z,69.67
2018-05-03T02:21:53.028Z,70.59
2018-05-03T02:22:35.162Z,69.82
2018-05-03T02:23:15.728Z,69.38
2018-05-03T02:23:56.930Z,69.86
2018-05-03T02:24:38.365Z,69.67
2018-05-03T02:25:21.973Z,70.15
2018-05-03T02:26:04.177Z,69.67
2018-05-03T02:26:44.794Z,69.76
2018-05-03T02:27:27.398Z,69.38
2018-05-03T02:28:07.824Z,68.9
2018-05-03T02:28:49.393Z,68.23
2018-05-03T02:29:32.429Z,68.9
2018-05-03T02:30:14.254Z,68.9
2018-05-03T02:30:56.197Z,68.9
2018-05-03T02:31:37.024Z,69.19
2018-05-03T02:32:17.937Z,69.67
2018-05-03T02:32:59.388Z,69.19
2018-05-03T02:33:51.974Z,68.42
2018-05-03T02:34:34.941Z,68.33
2018-05-03T02:35:16.784Z,68.9
2018-05-03T02:36:03.920Z,68.62
2018-05-03T02:37:00.399Z,68.8
2018-05-03T02:37:42.414Z,69.19
2018-05-03T02:39:18.729Z,67.94
2018-05-03T02:40:04.017Z,68.07
2018-05-03T02:40:49.363Z,68.36
2018-05-03T02:41:36.501Z,69.03
2018-05-03T02:42:17.183Z,69.09
2018-05-03T02:42:57.625Z,68.74
2018-05-03T02:43:45.367Z,68.84
2018-05-03T02:44:27.815Z,68.9
2018-05-03T02:45:12.001Z,67.94
2018-05-03T02:45:55.866Z,68.55
2018-05-03T02:46:38.764Z,67.94
2018-05-03T02:47:20.821Z,68.33
2018-05-03T02:48:07.183Z,68.62
2018-05-03T02:48:47.425Z,68.46
2018-05-03T02:49:28.893Z,67.98
2018-05-03T02:50:09.240Z,68.07
2018-05-03T02:50:54.870Z,67.6
2018-05-03T02:51:34.564Z,67.69
2018-05-03T02:52:20.210Z,68.94
2018-05-03T02:53:09.504Z,68.65
2018-05-03T02:53:56.411Z,68.71
2018-05-03T02:54:39.305Z,68.71
2018-05-03T02:55:20.393Z,69
2018-05-03T02:56:02.432Z,68.62
2018-05-03T02:56:42.751Z,68.17
2018-05-03T02:57:26.645Z,67.98
2018-05-03T02:59:23.347Z,68.46
2018-05-03T03:00:17.001Z,68.27
2018-05-03T03:00:57.412Z,68.27
2018-05-03T03:01:37.843Z,67.21
2018-05-03T03:02:18.221Z,67.11
2018-05-03T03:02:58.625Z,68.36
2018-05-03T03:03:39.008Z,67.88
2018-05-03T03:04:19.419Z,67.98
2018-05-03T03:04:59.793Z,68.17
2018-05-03T03:05:40.209Z,68.36
2018-05-03T03:06:20.624Z,68.55
2018-05-03T03:07:00.993Z,68.55
2018-05-03T03:07:41.395Z,68.36
2018-05-03T03:08:21.797Z,67.88
2018-05-03T03:09:02.215Z,67.69
2018-05-03T03:09:42.721Z,67.41
2018-05-03T03:10:23.080Z,67.5
2018-05-03T03:11:03.436Z,68.46
2018-05-03T03:11:43.841Z,68.74
2018-05-03T03:12:24.231Z,69.03
2018-05-03T03:13:04.650Z,69.51
2018-05-03T03:13:45.124Z,69.23
2018-05-03T03:14:25.466Z,69
2018-05-03T03:15:05.927Z,69.19
2018-05-03T03:15:46.288Z,69
2018-05-03T03:16:26.762Z,69.03
2018-05-03T03:17:07.095Z,69.48
2018-05-03T03:17:47.501Z,69.32
2018-05-03T03:18:27.854Z,68.62
2018-05-03T03:19:08.269Z,68.55
2018-05-03T03:19:48.651Z,68.74
2018-05-03T03:20:29.039Z,69.57
2018-05-03T03:21:09.585Z,69.76
2018-05-03T03:21:49.931Z,69.86
2018-05-03T03:22:30.291Z,69.67
2018-05-03T03:23:10.699Z,69.86
2018-05-03T03:25:25.896Z,69.67
2018-05-03T03:26:05.721Z,69.86
2018-05-03T03:26:46.311Z,69.67
2018-05-03T03:27:26.546Z,69.86
2018-05-03T03:28:07.259Z,69.48
2018-05-03T03:28:47.952Z,70.05
2018-05-03T03:29:28.078Z,69.57
2018-05-03T03:30:08.499Z,69.19
2018-05-03T03:30:48.888Z,69.19
2018-05-03T03:31:29.629Z,69.76
2018-05-03T03:32:10.068Z,70.24
2018-05-03T03:32:50.491Z,70.05
2018-05-03T03:33:30.936Z,69.95
2018-05-03T03:34:11.409Z,70.81
2018-05-03T03:34:51.919Z,70.62
2018-05-03T03:35:32.446Z,70.62
2018-05-03T03:36:12.930Z,70.34
2018-05-03T03:36:53.245Z,70.43
2018-05-03T03:37:33.899Z,70.91
2018-05-03T03:38:14.203Z,72.02
2018-05-03T03:38:54.967Z,71.73
2018-05-03T03:39:35.032Z,71.73
2018-05-03T03:40:15.452Z,72.02
2018-05-03T03:40:55.866Z,71.83
2018-05-03T03:41:36.470Z,71.64
2018-05-03T03:42:17.096Z,71.64
2018-05-03T03:42:57.493Z,71.73
2018-05-03T03:43:37.936Z,71.55
2018-05-03T03:44:18.352Z,72.31
2018-05-03T03:45:00.155Z,71.64
2018-05-03T03:45:40.385Z,71.83
2018-05-03T03:46:20.848Z,71.26
2018-05-03T03:47:01.195Z,71.26
2018-05-03T03:47:41.756Z,71.45
2018-05-03T03:48:22.433Z,71.26
2018-05-03T03:49:03.566Z,71.45
2018-05-03T03:49:44.217Z,71.93
2018-05-03T03:50:24.889Z,71.83
2018-05-03T03:51:05.228Z,71.73
2018-05-03T03:51:46.121Z,71.45
2018-05-03T03:52:26.410Z,71.26
2018-05-03T03:53:06.774Z,71.36
2018-05-03T03:53:47.184Z,71.26
2018-05-03T03:54:27.644Z,71.64
2018-05-03T03:55:09.545Z,71.83
2018-05-03T03:55:49.811Z,71.26
2018-05-03T03:56:30.175Z,71.07
2018-05-03T03:57:10.528Z,70.78
2018-05-03T03:57:51.327Z,70.68
2018-05-03T03:58:31.841Z,70.78
2018-05-03T03:59:12.576Z,70.59
2018-05-03T03:59:53.276Z,70.11
2018-05-03T04:00:33.832Z,69.82
2018-05-03T04:01:14.177Z,69.82
2018-05-03T04:01:55.143Z,69.82
2018-05-03T04:41:38.856Z,69.53
2018-05-03T04:42:19.090Z,69.62
2018-05-03T04:42:59.526Z,69.62
2018-05-03T04:43:39.845Z,69.34
2018-05-03T04:44:20.528Z,69.72
2018-05-03T04:45:03.510Z,69.56
2018-05-03T04:45:43.703Z,69.72
2018-05-03T04:46:24.401Z,69.53
2018-05-03T04:47:04.834Z,69.43
2018-05-03T04:47:45.149Z,69.37
2018-05-03T04:48:26.586Z,69.53
2018-05-03T04:49:07.632Z,69.82
2018-05-03T04:49:48.045Z,69.56
2018-05-03T04:50:28.526Z,69.62
2018-05-03T04:51:09.133Z,69.56
2018-05-03T04:51:52.991Z,69.09
2018-05-03T04:52:33.404Z,68.99
2018-05-03T04:53:14.439Z,69.34
2018-05-03T04:53:55.862Z,68.8
2018-05-03T04:54:37.141Z,68.9
2018-05-03T04:55:17.410Z,68.57
2018-05-03T04:55:58.256Z,68.9
2018-05-03T04:56:38.726Z,68.9
2018-05-03T04:57:19.280Z,69.09
2018-05-03T04:58:01.507Z,68.9
2018-05-03T04:58:43.140Z,68.61
2018-05-03T04:59:23.451Z,68.38
2018-05-03T05:00:03.769Z,68.7
2018-05-03T05:00:44.502Z,69.37
2018-05-03T05:01:24.953Z,69.09
2018-05-03T05:02:06.387Z,68.8
2018-05-03T05:02:46.880Z,68.23
2018-05-03T05:03:27.179Z,68.23
2018-05-03T05:04:07.912Z,68.04
2018-05-03T05:04:48.461Z,67.78
2018-05-03T05:05:29.073Z,67.21
2018-05-03T05:06:09.314Z,67.78
2018-05-03T05:06:49.860Z,66.63
2018-05-03T05:07:30.172Z,66.83
2018-05-03T05:08:10.837Z,66.92
2018-05-03T05:08:51.094Z,66.19
2018-05-03T05:09:31.528Z,65.61
2018-05-03T05:10:11.968Z,65.04
2018-05-03T05:10:52.328Z,64.09
2018-05-03T05:11:32.833Z,63.45
2018-05-03T05:12:13.278Z,63.16
2018-05-03T05:12:53.490Z,62.23
2018-05-03T05:13:33.972Z,60.99
2018-05-03T05:14:14.264Z,60.64
2018-05-03T05:14:54.719Z,60.54
2018-05-03T05:15:35.756Z,60.16
2018-05-03T05:16:16.027Z,59.97
2018-05-03T05:16:56.791Z,59.2
2018-05-03T05:17:37.452Z,59.39
2018-05-03T05:18:18.003Z,58.72
2018-05-03T05:18:58.981Z,59.04
2018-05-03T05:19:39.372Z,58.17
2018-05-03T05:20:20.259Z,57.7
2018-05-03T05:21:00.654Z,57.12
2018-05-03T05:21:41.389Z,57.41
2018-05-03T05:22:21.895Z,57.12
2018-05-03T05:23:02.230Z,56.93
2018-05-03T05:23:42.746Z,57.03
2018-05-03T05:24:23.909Z,56.83
2018-05-03T05:25:03.636Z,56.57
2018-05-03T05:25:45.722Z,56.76
2018-05-03T05:26:26.168Z,56.29
2018-05-03T05:27:06.532Z,55.9
2018-05-03T05:27:47.409Z,55.26
2018-05-03T05:28:27.674Z,54.88
2018-05-03T05:29:10.037Z,54.58
2018-05-03T05:29:50.760Z,54.58
2018-05-03T05:30:30.798Z,54.04
2018-05-03T05:31:12.277Z,54.23
2018-05-03T05:31:52.754Z,53.94
2018-05-03T05:32:33.135Z,53.94
2018-05-03T05:33:13.541Z,53.56
2018-05-03T05:33:54.106Z,53.46
2018-05-03T05:34:34.603Z,53.08
2018-05-03T05:35:15.984Z,53.46
2018-05-03T05:35:56.518Z,52.4
2018-05-03T05:36:37.855Z,52.53
2018-05-03T05:37:18.183Z,52.34
2018-05-03T05:37:59.297Z,51.37
2018-05-03T05:38:39.816Z,51.31
2018-05-03T05:39:20.770Z,50.54
2018-05-03T05:40:00.825Z,50.05
2018-05-03T05:40:41.245Z,49.87
2018-05-03T05:41:21.866Z,49.77
2018-05-03T05:42:02.510Z,49.29
2018-05-03T05:42:43.857Z,49.57
2018-05-03T05:43:24.347Z,49.41
2018-05-03T05:44:05.444Z,48.93
2018-05-03T05:44:48.830Z,48.74
2018-05-03T05:45:30.379Z,48.16
2018-05-03T05:46:11.742Z,48.07
2018-05-03T05:46:52.614Z,47.13
2018-05-03T05:47:33.181Z,47.05
2018-05-03T05:48:13.778Z,46.47
2018-05-03T05:48:54.576Z,45.7
2018-05-03T05:49:35.017Z,45.61
2018-05-03T05:50:16.252Z,45.25
2018-05-03T05:50:56.301Z,45.7
2018-05-03T05:51:36.744Z,45.03
2018-05-03T05:52:17.212Z,45.15
2018-05-03T05:52:59.454Z,45.13
2018-05-03T05:53:39.834Z,45.8
2018-05-03T05:54:20.642Z,45.51
2018-05-03T05:55:01.096Z,45.7
2018-05-03T05:55:41.536Z,45.99
2018-05-03T05:56:22.347Z,45.99
2018-05-03T05:57:02.747Z,45.9
2018-05-03T05:57:43.170Z,45.8
2018-05-03T05:58:24.511Z,45.99
2018-05-03T05:59:05.055Z,45.8
2018-05-03T05:59:45.937Z,45.15
2018-05-03T06:00:26.658Z,44.38
2018-05-03T06:01:07.012Z,43.82
2018-05-03T06:01:47.389Z,43.44
2018-05-03T06:04:12.270Z,42.21
2018-05-03T06:04:50.597Z,42.03
2018-05-03T06:05:31.137Z,41.65
2018-05-03T06:06:11.746Z,41.84
2018-05-03T06:06:52.424Z,41.48
2018-05-03T06:07:32.837Z,41.27
2018-05-03T06:08:13.301Z,40.22
2018-05-03T06:08:54.333Z,39.84
2018-05-03T06:09:34.799Z,39.64
2018-05-03T06:10:15.169Z,39.37
2018-05-03T06:10:55.828Z,38.7
2018-05-03T06:11:36.260Z,38.51
2018-05-03T06:12:17.352Z,39.09
2018-05-03T06:12:57.635Z,38.6
2018-05-03T06:13:38.138Z,38.99
2018-05-03T06:14:18.645Z,38.12
2018-05-03T06:14:59.521Z,37.83
2018-05-03T06:15:40.540Z,37.93
2018-05-03T06:16:22.286Z,37.75
2018-05-03T06:17:02.310Z,37.37
2018-05-03T06:17:42.704Z,36.8
2018-05-03T06:18:23.323Z,37.1
2018-05-03T06:19:04.429Z,36.24
2018-05-03T06:19:47.857Z,36.15
2018-05-03T06:20:28.116Z,35.84
2018-05-03T06:21:09.044Z,36.15
2018-05-03T06:21:49.350Z,35.74
2018-05-03T06:22:30.170Z,35.57
2018-05-03T06:23:10.720Z,35.84
2018-05-03T06:23:51.200Z,35.64
2018-05-03T06:24:32.523Z,36.3
2018-05-03T06:25:12.455Z,36.11
2018-05-03T06:25:56.002Z,36.88
2018-05-03T06:26:37.215Z,36.88
2018-05-03T06:27:17.439Z,36.88
2018-05-03T06:27:57.961Z,36.21
2018-05-03T06:28:40.291Z,35.94
2018-05-03T06:29:20.851Z,35.74
2018-05-03T06:30:01.267Z,35.06
2018-05-03T06:30:41.970Z,35.37
2018-05-03T06:31:22.367Z,34.89
2018-05-03T06:32:02.815Z,35.18
2018-05-03T06:32:43.525Z,34.7
2018-05-03T06:33:24.289Z,34.42
2018-05-03T06:34:04.651Z,34.23
2018-05-03T06:34:45.169Z,34.04
2018-05-03T06:35:25.740Z,34.02
2018-05-03T06:36:06.191Z,33.83
2018-05-03T06:36:47.186Z,33.73
2018-05-03T06:37:28.119Z,33.72
2018-05-03T06:38:09.266Z,33.81
2018-05-03T06:38:49.784Z,34.1
2018-05-03T06:39:30.810Z,34.1
2018-05-03T06:40:11.187Z,33.81
2018-05-03T06:40:51.608Z,33.81
2018-05-03T06:41:32.433Z,33.91
2018-05-03T06:42:16.007Z,34
2018-05-03T06:42:56.201Z,34.1
2018-05-03T06:43:36.848Z,33.91
2018-05-03T06:44:17.764Z,34.02
2018-05-03T06:44:58.814Z,33.83
2018-05-03T06:45:39.014Z,33.83
2018-05-03T06:46:20.084Z,33.73
2018-05-03T06:47:00.400Z,33.15
2018-05-03T06:47:41.422Z,32.86
2018-05-03T06:48:22.645Z,32.86
2018-05-03T06:49:03.481Z,33.07
2018-05-03T06:49:45.409Z,33.07
2018-05-03T06:50:26.348Z,33.07
2018-05-03T06:51:07.203Z,33.17
2018-05-03T06:51:47.559Z,33.07
2018-05-03T06:52:28.254Z,32.59
2018-05-03T06:53:09.267Z,32.59
2018-05-03T06:53:49.856Z,32.87
2018-05-03T06:54:30.920Z,32.78
2018-05-03T06:55:11.630Z,32.02
2018-05-03T06:55:52.610Z,31.81
2018-05-03T06:56:33.241Z,31.83
2018-05-03T06:57:13.691Z,31.34
2018-05-03T06:57:54.435Z,31.04
2018-05-03T06:58:35.464Z,31.71
2018-05-03T06:59:16.167Z,31.99
2018-05-03T06:59:56.779Z,32.18
2018-05-03T07:00:37.098Z,32.86
2018-05-03T07:01:17.875Z,32.76
2018-05-03T07:01:58.313Z,32.86
2018-05-03T07:02:38.958Z,32.57
2018-05-03T07:03:20.118Z,32.57
2018-05-03T07:03:59.671Z,32.56
2018-05-03T07:04:40.094Z,32.94
2018-05-03T07:05:20.522Z,34
2018-05-03T07:06:02.005Z,33.81
2018-05-03T07:06:42.752Z,33.33
2018-05-03T07:07:23.146Z,33.52
2018-05-03T07:08:03.480Z,33.62
2018-05-03T07:08:44.024Z,33.23
2018-05-03T07:09:25.372Z,32.84
2018-05-03T07:10:05.955Z,33.04
2018-05-03T07:10:46.387Z,33.23
2018-05-03T07:11:26.848Z,33.98
2018-05-03T07:12:08.848Z,33.12
2018-05-03T07:12:49.024Z,33.8
2018-05-03T07:13:29.628Z,34.08
2018-05-03T07:14:10.024Z,34.08
2018-05-03T07:14:51.167Z,34.28
2018-05-03T07:15:31.216Z,35.03
2018-05-03T07:16:11.716Z,33.97
2018-05-03T07:16:52.054Z,33.58
2018-05-03T07:17:32.861Z,34.16
2018-05-03T07:18:13.318Z,34.84
2018-05-03T07:18:53.901Z,34.74
2018-05-03T07:19:34.282Z,34.36
2018-05-03T07:20:14.912Z,34.26
2018-05-03T07:20:55.705Z,34.74
2018-05-03T07:21:37.047Z,33.97
2018-05-03T07:22:17.030Z,34.55
2018-05-03T07:22:57.492Z,34.94
2018-05-03T07:23:37.953Z,34.74
2018-05-03T07:24:18.374Z,35.13
2018-05-03T07:24:59.220Z,34.55
2018-05-03T07:25:42.537Z,35.22
2018-05-03T07:26:20.817Z,35.32
2018-05-03T07:27:01.342Z,34.94
2018-05-03T07:27:41.800Z,35.3
2018-05-03T07:28:22.804Z,35.21
2018-05-03T07:29:03.843Z,34.64
2018-05-03T07:29:44.348Z,34.94
2018-05-03T07:30:26.513Z,34.64
2018-05-03T07:31:06.462Z,34.55
2018-05-03T07:31:50.121Z,33.87
2018-05-03T07:32:30.702Z,34.16
2018-05-03T07:33:11.948Z,34.06
2018-05-03T07:33:53.020Z,34.45
2018-05-03T07:34:33.828Z,33.98
2018-05-03T07:35:14.786Z,33.97
2018-05-03T07:35:55.639Z,34.06
2018-05-03T07:36:38.882Z,34.55
2018-05-03T07:37:19.928Z,33.78
2018-05-03T07:38:00.547Z,33.78
2018-05-03T07:38:41.010Z,32.91
2018-05-03T07:39:21.494Z,33.29
2018-05-03T07:40:02.009Z,33.39
2018-05-03T07:40:43.667Z,33.76
2018-05-03T07:41:24.685Z,33.09
2018-05-03T07:42:05.100Z,33.76
2018-05-03T07:42:46.616Z,33.47
2018-05-03T07:43:26.801Z,33.76
2018-05-03T07:44:07.331Z,33.47
2018-05-03T07:44:47.616Z,32.6
2018-05-03T07:45:28.585Z,32.89
2018-05-03T07:46:08.927Z,32.03
2018-05-03T07:46:49.441Z,32.89
2018-05-03T07:47:29.952Z,32.99
2018-05-03T07:48:11.287Z,32.62
2018-05-03T07:48:51.862Z,32.62
2018-05-03T07:49:32.546Z,33.97
2018-05-03T07:50:13.127Z,32.43
2018-05-03T07:50:53.727Z,32.14
2018-05-03T07:51:34.366Z,32.71
2018-05-03T07:52:15.021Z,32.43
2018-05-03T07:52:57.804Z,32.81
2018-05-03T07:53:41.965Z,32.62
2018-05-03T07:54:22.500Z,32.23
2018-05-03T07:55:03.401Z,32.73
2018-05-03T07:55:44.357Z,31.76
2018-05-03T07:56:25.161Z,31.96
2018-05-03T07:57:05.666Z,31.48
2018-05-03T07:57:46.696Z,31.49
2018-05-03T07:58:27.369Z,31.4
2018-05-03T07:59:08.020Z,31.4
2018-05-03T07:59:48.761Z,31.3
2018-05-03T08:00:29.622Z,32.07
2018-05-03T08:01:12.148Z,31.76
2018-05-03T08:03:11.871Z,31.48
2018-05-03T08:03:52.250Z,31.86
2018-05-03T08:04:39.170Z,31.18
2018-05-03T08:05:41.348Z,32.15
2018-05-03T08:06:28.579Z,31.78
2018-05-03T08:07:11.735Z,31.88
2018-05-03T08:07:52.072Z,31.4
2018-05-03T08:08:35.188Z,31.96
2018-05-03T08:09:15.693Z,31.18
2018-05-03T08:11:51.206Z,32.06
2018-05-03T08:12:49.029Z,32.04
2018-05-03T08:13:33.397Z,32.34
2018-05-03T08:14:19.016Z,32.81
2018-05-03T08:18:19.965Z,32.91
2018-05-03T08:19:00.418Z,32.52
2018-05-03T08:19:47.666Z,32.62
2018-05-03T08:21:45.673Z,32.43
2018-05-03T08:22:42.181Z,32.43
2018-05-03T08:23:25.511Z,32.81
2018-05-03T08:24:05.979Z,32.6
2018-05-03T08:28:59.096Z,33
2018-05-03T08:45:36.595Z,30.35
2018-05-03T08:46:17.336Z,30.63
2018-05-03T08:46:58.111Z,30.25
2018-05-03T08:47:38.569Z,29.47
2018-05-03T08:48:19.487Z,29.46
2018-05-03T08:49:02.276Z,30.54
2018-05-03T08:49:42.731Z,30.24
2018-05-03T08:50:23.169Z,30.35
2018-05-03T08:51:03.651Z,30.43
2018-05-03T08:51:44.207Z,29.56
2018-05-03T08:52:24.674Z,30.33
2018-05-03T08:53:05.197Z,30.43
2018-05-03T08:53:45.615Z,30.52
2018-05-03T08:54:26.067Z,30.12
2018-05-03T08:55:06.520Z,29.83
2018-05-03T08:55:47.031Z,29.35
2018-05-03T08:56:27.713Z,30.41
2018-05-03T08:57:08.156Z,30.59
2018-05-03T08:57:49.337Z,30.4
2018-05-03T09:02:15.436Z,30.79
2018-05-03T09:02:55.960Z,30.79
2018-05-03T09:03:36.391Z,30.48
2018-05-03T09:04:17.130Z,30.4
2018-05-03T09:04:57.628Z,30.1
2018-05-03T09:05:38.240Z,30.67
2018-05-03T09:06:18.818Z,30.77
2018-05-03T09:06:59.434Z,30.38
2018-05-03T09:07:39.944Z,30.87
2018-05-03T09:08:20.389Z,31.35
2018-05-03T09:09:01.576Z,31.04
2018-05-03T09:09:44.672Z,31.24
2018-05-03T09:10:25.103Z,31.06
2018-05-03T09:11:05.893Z,31.14
2018-05-03T09:11:46.515Z,30.29
2018-05-03T09:12:26.980Z,30.27
2018-05-03T09:13:07.435Z,31.24
2018-05-03T09:13:48.261Z,31.33
2018-05-03T09:14:29.275Z,31.51
2018-05-03T09:15:09.665Z,31.22
2018-05-03T09:15:50.165Z,31.32
2018-05-03T09:16:31.045Z,31.9
2018-05-03T09:17:11.502Z,32.09
2018-05-03T09:17:52.147Z,32.09
2018-05-03T09:18:32.516Z,32.1
2018-05-03T09:19:13.346Z,32.2
2018-05-03T09:19:54.504Z,30.94
2018-05-03T09:20:35.375Z,30.94
2018-05-03T09:21:16.115Z,31.43
2018-05-03T09:21:56.921Z,31.25
2018-05-03T09:22:37.635Z,31.15
2018-05-03T09:23:18.461Z,30.96
2018-05-03T09:23:58.914Z,30.48
2018-05-03T09:24:39.667Z,30.58
2018-05-03T09:25:20.164Z,31.25
2018-05-03T09:26:00.574Z,31.07
2018-05-03T09:28:13.736Z,30.11
2018-05-03T09:28:53.925Z,30.48
2018-05-03T09:29:34.292Z,30.67
2018-05-03T09:30:14.872Z,30.69
2018-05-03T09:30:55.182Z,30.59
2018-05-03T09:31:35.572Z,29.82
2018-05-03T09:32:16.018Z,30.01
2018-05-03T09:32:56.771Z,29.71
2018-05-03T09:33:37.262Z,29.9
2018-05-03T09:34:18.680Z,29.8
2018-05-03T09:34:59.194Z,30.21
2018-05-03T09:35:39.611Z,29.53
2018-05-03T09:36:20.088Z,29.61
2018-05-03T09:37:00.503Z,29.43
2018-05-03T09:37:41.888Z,28.76
2018-05-03T09:38:21.609Z,29.24
2018-05-03T09:39:02.282Z,28.95
2018-05-03T09:39:42.593Z,28.85
2018-05-03T09:40:23.402Z,28.85
2018-05-03T09:41:04.338Z,29.53
2018-05-03T09:41:45.264Z,28.37
2018-05-03T09:42:26.564Z,27.98
2018-05-03T09:43:07.308Z,28.87
2018-05-03T09:43:47.719Z,28.19
2018-05-03T09:44:29.193Z,28.29
2018-05-03T09:45:09.808Z,28.5
2018-05-03T09:45:50.499Z,28.11
2018-05-03T09:46:30.863Z,28.11
2018-05-03T09:47:11.270Z,28.2
2018-05-03T09:47:51.641Z,28.69
2018-05-03T09:48:32.059Z,27.93
2018-05-03T09:49:12.473Z,27.73
2018-05-03T09:49:52.947Z,27.25
2018-05-03T09:50:33.555Z,27.15
2018-05-03T09:51:14.955Z,26.68
2018-05-03T09:51:55.761Z,25.83
2018-05-03T09:52:36.498Z,25.54
2018-05-03T09:53:17.068Z,25.74
2018-05-03T09:53:58.441Z,24.97
2018-05-03T09:54:40.305Z,24.78
2018-05-03T09:55:20.933Z,24.78
2018-05-03T09:56:01.184Z,24.1
2018-05-03T09:56:42.483Z,24.4
2018-05-03T09:57:22.773Z,24.11
2018-05-03T09:58:04.243Z,23.63
2018-05-03T09:58:44.690Z,24.3
2018-05-03T09:59:27.985Z,24.11
2018-05-03T10:00:09.217Z,23.72
2018-05-03T10:00:49.871Z,23.92
2018-05-03T10:01:32.378Z,23.92
2018-05-03T10:02:12.387Z,24.11
2018-05-03T10:02:54.079Z,24.01
2018-05-03T10:03:36.513Z,23.71
2018-05-03T10:41:54.372Z,23.25
2018-05-03T10:42:49.808Z,22.85
2018-05-03T10:49:47.708Z,21.89
2018-05-03T10:50:30.109Z,22.17
2018-05-03T10:51:10.749Z,21.59
2018-05-03T10:51:51.821Z,22.17
2018-05-03T10:52:32.281Z,21.79
2018-05-03T10:53:14.247Z,22.08
2018-05-03T10:53:54.566Z,22.66
2018-05-03T10:54:35.525Z,22.56
2018-05-03T10:55:17.158Z,22.37
2018-05-03T10:55:57.780Z,22.08
2018-05-03T10:56:38.355Z,21.98
2018-05-03T10:57:19.298Z,21.69
2018-05-03T10:58:00.356Z,21.98
2018-05-03T10:58:41.744Z,22.85
2018-05-03T10:59:22.798Z,22.09
2018-05-03T11:00:03.219Z,22.28
2018-05-03T11:00:46.983Z,21.99
2018-05-03T11:01:28.667Z,21.8
2018-05-03T11:02:09.160Z,21.8
2018-05-03T11:02:49.699Z,21.81
2018-05-03T11:03:31.233Z,22.1
2018-05-03T11:04:10.984Z,22
2018-05-03T11:04:51.828Z,21.82
2018-05-03T11:05:33.688Z,21.62
2018-05-03T11:06:16.169Z,22.02
2018-05-03T11:06:58.835Z,21.83
2018-05-03T11:07:42.246Z,21.83
2018-05-03T11:08:25.616Z,21.26
2018-05-03T11:09:06.583Z,21.65
2018-05-03T11:09:48.247Z,20.87
2018-05-03T11:10:28.229Z,20.29
2018-05-03T11:11:09.714Z,19.8
2018-05-03T11:11:50.332Z,20.58
2018-05-03T11:12:31.799Z,20.97
2018-05-03T11:13:12.848Z,21.36
2018-05-03T11:13:54.046Z,21.36
2018-05-03T11:14:36.557Z,21.16
2018-05-03T11:15:18.484Z,20.88
2018-05-03T11:16:01.871Z,21.36
2018-05-03T11:16:42.169Z,21.27
2018-05-03T11:17:22.784Z,21.56
2018-05-03T11:18:04.630Z,20.2
2018-05-03T11:18:44.669Z,19.82
2018-05-03T11:19:26.045Z,19.73
2018-05-03T11:20:07.099Z,18.95
2018-05-03T11:20:47.788Z,19.53
2018-05-03T11:21:31.071Z,19.73
2018-05-03T11:22:13.155Z,18.96
2018-05-03T11:22:55.451Z,19.06
2018-05-03T11:23:37.079Z,19.54
2018-05-03T11:24:18.584Z,19.64
2018-05-03T11:24:58.979Z,19.63
2018-05-03T11:25:39.831Z,19.62
2018-05-03T11:26:22.667Z,20.01
2018-05-03T11:27:03.037Z,19.53
2018-05-03T11:27:44.642Z,19.04
2018-05-03T11:28:27.921Z,18.45
2018-05-03T11:29:09.164Z,18.94
2018-05-03T11:29:51.307Z,19.52
2018-05-03T11:30:31.947Z,19.32
2018-05-03T11:31:14.049Z,19.32
2018-05-03T11:31:57.935Z,19.7
2018-05-03T11:32:39.261Z,19.6
2018-05-03T11:33:21.268Z,20.18
2018-05-03T11:34:02.098Z,20.37
2018-05-03T11:34:43.606Z,20.28
2018-05-03T11:35:25.655Z,20.67
2018-05-03T11:36:06.612Z,20.08
2018-05-03T11:36:47.775Z,19.6
2018-05-03T11:37:31.271Z,19.31
2018-05-03T11:38:15.558Z,19.78
2018-05-03T11:38:57.701Z,20.46
2018-05-03T11:39:40.524Z,20.76
2018-05-03T11:40:21.556Z,20.47
2018-05-03T11:41:02.279Z,20.28
2018-05-03T11:41:42.966Z,19.31